Grandview, Ohio
Current Conditions -  °F | °C
As of 7:53 PM on Sunday 21 Dec 2014 (Local Time) from KOSU Reporting Station
Clear Clear  
Wind Chill: 30°   Ceiling: Unl
Heat Index: 30°   Visibility: 8mi
Dew Point: 22°   Wind: 3mph
Humidity: 72%   Direction: 110°ESE
Pressure: 30.19"   Gusts: NA
Location:  39.987°N, 83.0425°W
Report Text: KOSU 220053Z 11003KT 8SM CLR M01/M06 A3019 RMK AO2 SLP233 T10111056
Loading
Personal Weather Stations






























Interactive Weather Map New forecast layout! Learn more

10-Day Weather Forecast

Advertisements
Track Severe Weather on mobile